createdAt,value
2023-08-16T00:04:37.682Z,18.86
2023-08-16T00:09:41.112Z,18.88
2023-08-16T00:14:44.475Z,18.52
2023-08-16T00:19:49.253Z,18.61
2023-08-16T00:24:52.839Z,18.29
2023-08-16T00:29:56.165Z,18.40
2023-08-16T00:35:00.873Z,18.52
2023-08-16T00:40:04.650Z,18.70
2023-08-16T00:45:08.867Z,18.84
2023-08-16T00:50:13.747Z,18.72
2023-08-16T00:55:17.669Z,18.58
2023-08-16T01:00:21.514Z,18.69
2023-08-16T01:05:26.323Z,18.58
2023-08-16T01:10:34.968Z,18.69
2023-08-16T01:15:41.283Z,18.72
2023-08-16T01:20:48.556Z,18.55
2023-08-16T01:25:58.813Z,18.61
2023-08-16T01:31:06.405Z,18.61
2023-08-16T01:36:09.679Z,18.63
2023-08-16T01:41:16.589Z,18.68
2023-08-16T01:46:22.338Z,18.63
2023-08-16T01:51:26.005Z,18.50
2023-08-16T01:56:29.557Z,18.71
2023-08-16T02:01:34.276Z,18.74
2023-08-16T02:06:37.608Z,18.83
2023-08-16T02:11:40.995Z,18.93
2023-08-16T02:16:45.761Z,18.93
2023-08-16T02:21:49.358Z,18.79
2023-08-16T02:26:54.547Z,18.74
2023-08-16T02:31:59.228Z,18.32
2023-08-16T02:37:02.533Z,18.46
2023-08-16T02:42:06.089Z,18.23
2023-08-16T02:47:10.735Z,17.99
2023-08-16T02:52:14.094Z,18.11
2023-08-16T02:57:19.628Z,18.06
2023-08-16T03:02:26.421Z,17.81
2023-08-16T03:07:29.760Z,17.91
2023-08-16T03:12:33.130Z,17.91
2023-08-16T03:17:38.248Z,17.62
2023-08-16T03:22:42.632Z,17.70
2023-08-16T03:27:46.106Z,17.58
2023-08-16T03:32:54.272Z,17.71
2023-08-16T03:37:59.278Z,17.65
2023-08-16T03:43:03.185Z,17.65
2023-08-16T03:48:08.317Z,17.52
2023-08-16T03:53:12.537Z,17.40
2023-08-16T03:58:16.090Z,17.38
2023-08-16T04:03:21.010Z,17.35
2023-08-16T04:08:24.472Z,17.29
2023-08-16T04:13:27.785Z,17.20
2023-08-16T04:18:32.736Z,17.13
2023-08-16T04:23:36.103Z,17.43
2023-08-16T04:28:39.396Z,17.27
2023-08-16T04:33:44.120Z,17.53
2023-08-16T04:38:47.535Z,17.36
2023-08-16T04:43:50.816Z,17.67
2023-08-16T04:48:56.020Z,18.04
2023-08-16T04:53:59.543Z,18.08
2023-08-16T04:59:02.961Z,18.09
2023-08-16T05:04:10.112Z,18.29
2023-08-16T05:09:13.872Z,18.46
2023-08-16T05:14:17.759Z,18.67
2023-08-16T05:19:22.572Z,18.88
2023-08-16T05:24:26.823Z,18.98
2023-08-16T05:29:30.214Z,19.08
2023-08-16T05:34:35.154Z,18.89
2023-08-16T05:39:40.266Z,19.04
2023-08-16T05:44:45.759Z,19.02
2023-08-16T05:49:50.640Z,18.88
2023-08-16T05:54:53.937Z,19.53
2023-08-16T05:59:57.154Z,19.61
2023-08-16T06:05:02.027Z,19.84
2023-08-16T06:10:06.212Z,20.37
2023-08-16T06:15:12.654Z,20.54
2023-08-16T06:20:17.960Z,21.07
2023-08-16T06:25:21.588Z,20.73
2023-08-16T06:30:25.137Z,20.45
2023-08-16T06:35:30.874Z,20.41
2023-08-16T06:40:34.749Z,20.33
2023-08-16T06:45:38.078Z,20.38
2023-08-16T06:50:42.858Z,20.46
2023-08-16T06:55:47.153Z,20.71
2023-08-16T07:00:51.192Z,20.70
2023-08-16T07:05:55.844Z,21.19
2023-08-16T07:10:59.216Z,20.53
2023-08-16T07:16:02.640Z,20.80
2023-08-16T07:21:07.294Z,20.79
2023-08-16T07:26:10.647Z,21.11
2023-08-16T07:31:13.906Z,21.31
2023-08-16T07:36:18.628Z,21.14
2023-08-16T07:41:21.930Z,20.95
2023-08-16T07:46:25.303Z,20.98
2023-08-16T07:51:30.738Z,21.15
2023-08-16T07:56:34.093Z,21.19
2023-08-16T08:01:37.371Z,21.69
2023-08-16T08:06:42.666Z,21.77
2023-08-16T08:11:46.008Z,22.06
2023-08-16T08:16:49.336Z,22.18
2023-08-16T08:21:54.118Z,21.64
2023-08-16T08:26:58.704Z,21.97
2023-08-16T08:32:02.436Z,22.21
2023-08-16T08:37:08.175Z,22.14
2023-08-16T08:42:11.724Z,22.21
2023-08-16T08:47:17.334Z,22.50
2023-08-16T08:52:23.007Z,22.66
2023-08-16T08:57:27.307Z,22.64
2023-08-16T09:02:34.906Z,22.16
2023-08-16T09:07:41.411Z,22.27
2023-08-16T09:12:45.136Z,22.81
2023-08-16T09:17:51.588Z,23.00
2023-08-16T09:22:56.511Z,23.92
2023-08-16T09:28:01.808Z,24.10
2023-08-16T09:33:06.046Z,23.90
2023-08-16T09:43:17.877Z,24.48
2023-08-16T09:48:22.901Z,23.79
2023-08-16T09:58:34.169Z,24.33
2023-08-16T10:03:37.699Z,24.27
2023-08-16T10:08:42.381Z,25.11
2023-08-16T10:13:46.335Z,24.04
2023-08-16T10:18:50.113Z,23.85
2023-08-16T10:23:56.652Z,23.95
2023-08-16T10:29:02.542Z,23.87
2023-08-16T10:34:08.974Z,23.99
2023-08-16T10:39:22.485Z,23.82
2023-08-16T10:44:26.613Z,24.32
2023-08-16T10:49:39.394Z,24.90
2023-08-16T10:54:44.209Z,24.94
2023-08-16T10:59:48.507Z,25.33
2023-08-16T11:04:52.299Z,25.10
2023-08-16T11:10:00.617Z,24.60
2023-08-16T11:15:05.097Z,25.02
2023-08-16T11:20:11.244Z,25.20
2023-08-16T11:25:15.993Z,25.18
2023-08-16T11:30:20.121Z,24.76
2023-08-16T11:35:25.031Z,25.19
2023-08-16T11:40:29.721Z,25.42
2023-08-16T11:45:33.085Z,25.69
2023-08-16T11:50:36.834Z,26.32
2023-08-16T11:55:43.134Z,26.05
2023-08-16T12:00:46.554Z,26.01
2023-08-16T12:05:50.928Z,25.16
2023-08-16T12:10:56.269Z,24.53
2023-08-16T12:15:59.716Z,24.63
2023-08-16T12:21:02.897Z,24.34
2023-08-16T12:26:08.618Z,24.29
2023-08-16T12:31:13.428Z,24.37
2023-08-16T12:36:16.617Z,24.74
2023-08-16T12:41:21.259Z,25.18
2023-08-16T12:46:24.522Z,25.84
2023-08-16T12:51:28.051Z,25.43
2023-08-16T12:56:33.239Z,25.69
2023-08-16T13:01:42.261Z,25.37
2023-08-16T13:11:57.144Z,26.17
2023-08-16T13:22:17.047Z,25.49
2023-08-16T13:27:40.761Z,25.77
2023-08-16T13:32:46.523Z,26.38
2023-08-16T13:37:58.332Z,26.98
2023-08-16T13:48:10.267Z,26.41
2023-08-16T13:53:13.777Z,27.29
2023-08-16T13:58:19.736Z,27.29
2023-08-16T14:03:23.475Z,27.31
2023-08-16T14:08:27.411Z,26.93
2023-08-16T14:13:32.521Z,26.35
2023-08-16T14:18:38.038Z,26.48
2023-08-16T14:23:41.210Z,25.98
2023-08-16T14:28:46.028Z,26.66
2023-08-16T14:33:49.291Z,27.41
2023-08-16T14:38:59.863Z,26.29
2023-08-16T14:44:06.255Z,25.76
2023-08-16T14:49:09.761Z,26.08
2023-08-16T14:54:13.313Z,26.34
2023-08-16T14:59:18.326Z,26.23
2023-08-16T15:04:22.352Z,25.93
2023-08-16T15:09:26.673Z,26.08
2023-08-16T15:14:31.516Z,26.98
2023-08-16T15:19:41.569Z,27.60
2023-08-16T15:24:44.854Z,27.52
2023-08-16T15:29:49.574Z,26.65
2023-08-16T15:34:53.515Z,26.22
2023-08-16T15:39:56.661Z,25.77
2023-08-16T15:45:01.403Z,25.76
2023-08-16T15:50:04.948Z,26.18
2023-08-16T15:55:09.436Z,25.88
2023-08-16T16:00:15.965Z,25.76
2023-08-16T16:05:20.102Z,25.87
2023-08-16T16:10:24.164Z,25.77
2023-08-16T16:15:29.440Z,26.13
2023-08-16T16:20:33.055Z,26.01
2023-08-16T16:25:36.487Z,26.36
2023-08-16T16:30:41.198Z,25.96
2023-08-16T16:35:44.697Z,25.88
2023-08-16T16:40:48.428Z,25.51
2023-08-16T16:45:53.128Z,25.06
2023-08-16T16:50:56.925Z,25.35
2023-08-16T16:56:00.241Z,25.30
2023-08-16T17:01:05.607Z,25.19
2023-08-16T17:06:08.970Z,24.89
2023-08-16T17:11:12.405Z,24.74
2023-08-16T17:16:17.215Z,24.88
2023-08-16T17:21:20.501Z,24.73
2023-08-16T17:26:23.961Z,24.66
2023-08-16T17:31:28.724Z,24.65
2023-08-16T17:36:32.521Z,24.17
2023-08-16T17:41:35.793Z,24.13
2023-08-16T17:46:40.578Z,24.06
2023-08-16T17:51:44.163Z,23.38
2023-08-16T17:56:47.320Z,23.59
2023-08-16T18:01:54.563Z,23.36
2023-08-16T18:06:59.594Z,22.94
2023-08-16T18:12:02.891Z,22.85
2023-08-16T18:17:07.636Z,22.52
2023-08-16T18:22:10.919Z,22.56
2023-08-16T18:27:14.154Z,22.30
2023-08-16T18:32:19.099Z,21.91
2023-08-16T18:37:22.519Z,21.79
2023-08-16T18:42:25.877Z,21.57
2023-08-16T18:47:30.566Z,21.58
2023-08-16T18:52:33.753Z,21.38
2023-08-16T18:57:37.222Z,21.00
2023-08-16T19:02:41.937Z,21.18
2023-08-16T19:07:45.239Z,21.11
2023-08-16T19:12:48.528Z,21.15
2023-08-16T19:17:54.364Z,20.92
2023-08-16T19:22:58.171Z,21.10
2023-08-16T19:28:01.545Z,21.03
2023-08-16T19:33:06.947Z,20.96
2023-08-16T19:38:10.382Z,20.67
2023-08-16T19:43:13.603Z,20.97
2023-08-16T19:48:18.384Z,21.19
2023-08-16T19:53:22.078Z,20.77
2023-08-16T19:58:25.910Z,20.94
2023-08-16T20:03:30.725Z,21.19
2023-08-16T20:08:34.096Z,21.26
2023-08-16T20:13:37.353Z,21.34
2023-08-16T20:18:42.237Z,20.84
2023-08-16T20:23:45.656Z,21.15
2023-08-16T20:28:48.921Z,21.05
2023-08-16T20:33:53.715Z,20.90
2023-08-16T20:38:57.272Z,20.95
2023-08-16T20:44:00.550Z,21.07
2023-08-16T20:49:10.286Z,21.02
2023-08-16T20:54:14.623Z,21.01
2023-08-16T20:59:18.280Z,20.92
2023-08-16T21:04:23.161Z,20.88
2023-08-16T21:09:26.840Z,20.93
2023-08-16T21:14:30.559Z,20.91
2023-08-16T21:19:37.438Z,20.95
2023-08-16T21:24:40.993Z,20.86
2023-08-16T21:29:44.354Z,20.72
2023-08-16T21:34:49.079Z,20.69
2023-08-16T21:39:52.646Z,20.78
2023-08-16T21:44:56.054Z,20.36
2023-08-16T21:50:00.843Z,20.59
2023-08-16T21:55:04.324Z,20.65
2023-08-16T22:00:09.563Z,20.54
2023-08-16T22:05:14.219Z,20.30
2023-08-16T22:10:18.516Z,20.40
2023-08-16T22:15:24.705Z,20.19
2023-08-16T22:20:29.401Z,20.32
2023-08-16T22:25:32.757Z,20.34
2023-08-16T22:30:36.093Z,20.20
2023-08-16T22:35:40.811Z,20.31
2023-08-16T22:40:44.198Z,20.59
2023-08-16T22:45:47.594Z,20.62
2023-08-16T22:50:52.351Z,20.48
2023-08-16T22:55:55.732Z,20.63
2023-08-16T23:00:59.146Z,20.80
2023-08-16T23:06:04.135Z,20.92
2023-08-16T23:11:08.081Z,20.97
2023-08-16T23:16:11.396Z,20.77
2023-08-16T23:21:16.177Z,20.47
2023-08-16T23:26:19.446Z,19.75
2023-08-16T23:31:22.741Z,19.58
2023-08-16T23:36:27.527Z,19.47
2023-08-16T23:42:14.449Z,19.21
2023-08-16T23:54:25.777Z,18.62
